Time;durP1;ratioP1;P1;durP2;ratioP2;P2;SDS_P1;SDS_P2;PMS_P1;PMS_P2;Temp;Humidity;BMP_temperature;BMP_pressure;BME280_temperature;BME280_humidity;BME280_pressure;Samples;Min_cycle;Max_cycle;Signal;HPM_P1;HPM_P2
2023/03/24 00:01:53;;;;;;;19.02;13.13;;;;;;;13.42;49.12;98897.44;4230744;33;34271;-92
2023/03/24 00:04:23;;;;;;;21.17;11.20;;;;;;;13.42;49.08;98905.25;4244843;33;33601;-91
2023/03/24 00:06:52;;;;;;;16.92;11.75;;;;;;;13.44;49.20;98897.44;4227359;33;32665;-89
2023/03/24 00:09:20;;;;;;;17.27;12.07;;;;;;;13.45;49.03;98892.25;4245895;33;34157;-93
2023/03/24 00:11:48;;;;;;;16.87;11.90;;;;;;;13.43;48.95;98893.09;4243182;33;34385;-92
2023/03/24 00:14:15;;;;;;;17.87;12.27;;;;;;;13.41;48.95;98887.00;4257020;33;33419;-92
2023/03/24 00:16:44;;;;;;;17.20;11.40;;;;;;;13.42;48.95;98897.44;4228920;33;32490;-93
2023/03/24 00:19:13;;;;;;;16.87;12.43;;;;;;;13.35;48.91;98890.53;4243113;33;33008;-94
2023/03/24 00:21:42;;;;;;;16.10;11.12;;;;;;;13.26;49.19;98896.63;4256570;33;33716;-89
2023/03/24 00:24:11;;;;;;;15.55;12.63;;;;;;;13.26;49.25;98895.72;4256226;33;32993;-92
2023/03/24 00:26:40;;;;;;;16.30;11.23;;;;;;;13.28;49.00;98894.00;4245466;33;33786;-93
2023/03/24 00:29:10;;;;;;;16.90;12.00;;;;;;;13.27;49.19;98892.28;4246268;33;34173;-89
2023/03/24 00:31:38;;;;;;;16.05;12.25;;;;;;;13.19;49.46;98888.81;4233731;33;34464;-93
2023/03/24 00:34:09;;;;;;;16.40;11.90;;;;;;;13.14;49.59;98878.38;4232036;33;33570;-91
2023/03/24 00:36:36;;;;;;;17.27;11.98;;;;;;;13.21;49.40;98874.91;4257428;33;32242;-92
2023/03/24 00:39:05;;;;;;;19.08;12.77;;;;;;;13.30;49.05;98879.25;4231670;33;33211;-91
2023/03/24 00:41:33;;;;;;;18.12;12.77;;;;;;;13.07;49.54;98877.53;4231199;33;34077;-90
2023/03/24 00:44:04;;;;;;;17.40;12.35;;;;;;;13.06;49.62;98874.94;4256922;33;33945;-90
2023/03/24 00:46:33;;;;;;;16.58;12.70;;;;;;;13.01;49.74;98871.47;4244252;33;33680;-88
2023/03/24 00:49:04;;;;;;;18.30;12.48;;;;;;;13.13;49.47;98861.91;4245257;33;33629;-92
2023/03/24 00:51:36;;;;;;;16.33;12.00;;;;;;;13.12;49.71;98860.16;4242539;33;34309;-89
2023/03/24 00:54:04;;;;;;;19.02;13.05;;;;;;;13.19;49.40;98850.63;4233405;33;34433;-89
2023/03/24 00:56:34;;;;;;;19.55;13.18;;;;;;;13.13;49.48;98854.09;4244461;33;34643;-91
2023/03/24 00:59:03;;;;;;;19.27;13.07;;;;;;;12.89;50.20;98846.34;4233999;33;34238;-90
2023/03/24 01:01:33;;;;;;;17.70;12.35;;;;;;;12.93;50.28;98842.00;4231679;33;33046;-89
2023/03/24 01:04:04;;;;;;;19.60;13.57;;;;;;;12.79;50.86;98834.22;4233986;33;33116;-91
2023/03/24 01:06:35;;;;;;;18.98;13.68;;;;;;;12.92;50.40;98830.75;4244160;33;33433;-92
2023/03/24 01:09:04;;;;;;;17.50;13.27;;;;;;;12.83;50.60;98831.59;4244315;33;33445;-91
2023/03/24 01:11:38;;;;;;;18.55;13.93;;;;;;;12.80;50.79;98828.13;4244052;33;32552;-92
2023/03/24 01:14:08;;;;;;;18.12;12.98;;;;;;;12.73;51.13;98831.59;4242676;33;33399;-90
2023/03/24 01:16:36;;;;;;;21.85;13.98;;;;;;;12.86;50.81;98825.53;4230131;33;34225;-90
2023/03/24 01:19:04;;;;;;;22.73;14.95;;;;;;;12.81;50.85;98825.56;4245284;33;33726;-91
2023/03/24 01:21:33;;;;;;;22.37;13.32;;;;;;;12.84;50.61;98811.66;4244031;33;33663;-88
2023/03/24 01:24:03;;;;;;;19.12;13.75;;;;;;;12.84;50.74;98817.75;4244865;33;33386;-92
2023/03/24 01:26:31;;;;;;;20.77;13.73;;;;;;;12.77;50.85;98815.16;4233042;33;33861;-92
2023/03/24 01:28:59;;;;;;;19.40;14.30;;;;;;;12.75;50.97;98806.47;4217132;33;34182;-90
2023/03/24 01:31:26;;;;;;;20.48;14.10;;;;;;;12.85;50.85;98808.19;4249847;33;34518;-92
2023/03/24 01:33:54;;;;;;;18.98;13.90;;;;;;;12.77;50.93;98803.03;4222215;33;33089;-92
2023/03/24 01:36:22;;;;;;;20.05;13.52;;;;;;;12.86;50.47;98800.38;4257771;33;33686;-90
2023/03/24 01:38:49;;;;;;;21.67;15.30;;;;;;;12.87;50.42;98791.69;4244203;33;34895;-93
2023/03/24 01:41:17;;;;;;;20.65;14.48;;;;;;;12.87;50.44;98796.03;4255669;33;33900;-92
2023/03/24 01:43:45;;;;;;;21.40;14.48;;;;;;;12.78;50.84;98790.88;4244720;33;34179;-91
2023/03/24 01:46:14;;;;;;;18.35;13.85;;;;;;;12.71;50.88;98794.34;4255187;33;33928;-90
2023/03/24 01:48:42;;;;;;;20.08;14.02;;;;;;;12.49;51.38;98796.97;4255695;33;34295;-89
2023/03/24 01:51:34;;;;;;;18.92;14.95;;;;;;;12.38;51.66;98791.78;4244618;33;33679;-88
2023/03/24 01:54:26;;;;;;;16.90;13.75;;;;;;;12.52;51.52;98796.97;4232977;33;33262;-86
2023/03/24 01:56:58;;;;;;;20.70;14.80;;;;;;;12.52;51.58;98798.72;4230844;33;33871;-90
2023/03/24 01:59:29;;;;;;;20.88;14.43;;;;;;;12.14;52.45;98795.25;4241063;33;34908;-91
2023/03/24 02:02:02;;;;;;;23.90;14.73;;;;;;;12.39;51.82;98797.88;4242364;33;33838;-88
2023/03/24 02:04:33;;;;;;;19.00;15.02;;;;;;;12.31;52.05;98805.66;4245395;33;34244;-90
2023/03/24 02:07:11;;;;;;;20.92;14.85;;;;;;;12.39;52.14;98797.88;4230654;33;32198;-88
2023/03/24 02:09:39;;;;;;;18.02;15.27;;;;;;;12.47;51.71;98787.47;4231652;33;34188;-88
2023/03/24 02:12:07;;;;;;;19.40;14.38;;;;;;;12.45;51.56;98777.03;4230051;33;34050;-90
2023/03/24 02:14:35;;;;;;;23.55;15.10;;;;;;;12.60;51.04;98782.22;4243855;33;33383;-89
2023/03/24 02:17:18;;;;;;;19.48;13.93;;;;;;;12.57;51.06;98787.41;4231956;33;32990;-89
2023/03/24 02:20:10;;;;;;;19.05;13.70;;;;;;;12.57;51.35;98787.41;4257198;33;34684;-88
2023/03/24 02:23:03;;;;;;;21.52;15.13;;;;;;;12.39;51.73;98788.31;4255857;33;33733;-88
2023/03/24 02:25:50;;;;;;;24.45;15.30;;;;;;;12.45;51.62;98782.25;4242185;33;33128;-88
2023/03/24 02:28:35;;;;;;;19.40;13.75;;;;;;;12.48;51.50;98782.25;4230166;33;33947;-87
2023/03/24 02:31:37;;;;;;;21.15;15.45;;;;;;;12.42;51.65;98792.62;4233628;33;33181;-88
2023/03/24 02:34:24;;;;;;;19.35;14.63;;;;;;;12.44;51.66;98787.47;4258567;33;34152;-90
2023/03/24 02:37:11;;;;;;;;;;;;;;;12.46;51.47;98778.75;4257896;33;34332;-90
2023/03/24 02:39:48;;;;;;;20.85;14.82;;;;;;;12.47;51.40;98790.91;4258173;33;34161;-88
2023/03/24 02:42:30;;;;;;;21.30;14.95;;;;;;;12.27;51.98;98795.25;4256691;33;33618;-87
2023/03/24 02:45:34;;;;;;;23.08;16.17;;;;;;;12.33;51.83;98788.31;4243212;33;33043;-90
2023/03/24 02:48:22;;;;;;;21.98;16.92;;;;;;;12.13;52.53;98784.88;4236771;33;33238;-89
2023/03/24 02:50:50;;;;;;;21.15;16.37;;;;;;;12.16;52.42;98783.13;4242985;33;33741;-88
2023/03/24 02:53:37;;;;;;;21.12;15.77;;;;;;;12.30;52.04;98777.06;4245644;33;33810;-89
2023/03/24 02:56:11;;;;;;;20.67;15.57;;;;;;;12.29;51.84;98767.53;4253276;33;33672;-92
2023/03/24 02:58:50;;;;;;;22.48;14.82;;;;;;;12.20;51.82;98763.22;4246174;33;33437;-90
2023/03/24 03:01:30;;;;;;;19.23;15.45;;;;;;;12.09;52.27;98758.00;4222337;33;32841;-92
2023/03/24 03:04:06;;;;;;;20.45;15.65;;;;;;;12.11;52.22;98756.25;4235443;33;34633;-93
2023/03/24 03:06:39;;;;;;;21.50;16.57;;;;;;;11.97;52.68;98763.22;4232747;33;33672;-89
2023/03/24 03:09:09;;;;;;;23.27;16.45;;;;;;;12.02;52.71;98761.47;4245739;33;34176;-92
2023/03/24 03:11:44;;;;;;;23.12;16.85;;;;;;;11.95;52.86;98751.94;4229984;33;33854;-91
2023/03/24 03:14:36;;;;;;;21.33;16.07;;;;;;;11.88;53.03;98747.59;4231827;33;33891;-93
2023/03/24 03:17:14;;;;;;;23.85;16.87;;;;;;;11.69;53.50;98734.56;4252156;33;34065;-90
2023/03/24 03:19:52;;;;;;;22.58;17.83;;;;;;;11.65;53.70;98751.00;4246879;33;34334;-90
2023/03/24 03:22:22;;;;;;;23.75;18.60;;;;;;;11.51;54.28;98763.06;4242005;33;33962;-91
2023/03/24 03:24:52;;;;;;;23.52;17.83;;;;;;;11.55;54.29;98756.16;4243290;33;34777;-91
2023/03/24 03:27:25;;;;;;;27.00;18.62;;;;;;;11.66;53.98;98742.34;4244817;33;34869;-92
2023/03/24 03:29:59;;;;;;;24.40;17.92;;;;;;;11.86;53.36;98742.41;4246960;33;33552;-90
2023/03/24 03:32:31;;;;;;;22.65;18.20;;;;;;;11.76;53.41;98742.38;4243720;33;32383;-89
2023/03/24 03:35:08;;;;;;;23.15;17.35;;;;;;;12.01;53.00;98753.66;4245587;33;34555;-89
2023/03/24 03:37:45;;;;;;;23.05;18.25;;;;;;;11.92;53.09;98751.94;4230356;33;33575;-91
2023/03/24 03:40:18;;;;;;;25.23;19.75;;;;;;;11.88;53.08;98760.59;4254623;33;34218;-88
2023/03/24 03:42:47;;;;;;;23.48;18.42;;;;;;;11.75;53.24;98754.50;4232920;33;33210;-93
2023/03/24 03:45:15;;;;;;;24.30;18.80;;;;;;;11.88;52.88;98758.00;4232670;33;33705;-90
2023/03/24 03:47:42;;;;;;;24.20;18.65;;;;;;;11.92;52.74;98755.38;4227782;33;34628;-89
2023/03/24 03:50:11;;;;;;;24.35;19.60;;;;;;;11.87;52.84;98753.66;4231912;33;33234;-89
2023/03/24 03:52:40;;;;;;;24.75;20.48;;;;;;;11.83;52.82;98744.13;4256659;33;32353;-89
2023/03/24 03:55:08;;;;;;;24.23;19.52;;;;;;;11.99;52.43;98756.25;4246009;33;35218;-90
2023/03/24 03:57:37;;;;;;;25.08;21.35;;;;;;;11.97;52.29;98742.44;4245844;33;33657;-91
2023/03/24 04:00:13;;;;;;;24.27;19.23;;;;;;;11.60;53.13;98744.09;4246201;33;32915;-88
2023/03/24 04:03:21;;;;;;;25.17;19.52;;;;;;;11.72;52.94;98751.03;4244097;33;33833;-91
2023/03/24 04:05:52;;;;;;;23.25;20.12;;;;;;;11.77;52.57;98742.34;4255417;33;34897;-91
2023/03/24 04:08:39;;;;;;;23.45;19.83;;;;;;;11.60;52.98;98737.16;4242831;33;33629;-91
2023/03/24 04:11:38;;;;;;;27.77;20.83;;;;;;;11.63;53.05;98725.88;4244308;33;33199;-88
2023/03/24 04:14:28;;;;;;;24.35;19.85;;;;;;;11.68;52.78;98726.78;4220799;33;32804;-91
2023/03/24 04:16:56;;;;;;;27.42;20.73;;;;;;;11.42;53.26;98737.13;4245975;33;33907;-91
2023/03/24 04:19:29;;;;;;;28.20;21.08;;;;;;;11.53;53.13;98737.13;4245697;33;33208;-91
2023/03/24 04:22:37;;;;;;;25.55;21.02;;;;;;;11.41;53.42;98741.44;4234707;33;32295;-91
2023/03/24 04:25:48;;;;;;;27.95;21.55;;;;;;;11.42;53.54;98732.78;4241513;33;33850;-93
2023/03/24 04:28:25;;;;;;;25.40;20.75;;;;;;;11.33;53.52;98737.09;4245755;33;33190;-91
2023/03/24 04:31:06;;;;;;;27.75;22.27;;;;;;;11.36;53.52;98739.69;4234828;33;33869;-92
2023/03/24 04:33:39;;;;;;;29.77;22.37;;;;;;;11.39;53.41;98737.09;4246590;33;34156;-88
2023/03/24 04:36:31;;;;;;;27.98;20.98;;;;;;;11.44;53.26;98736.25;4246026;33;34157;-90
2023/03/24 04:39:03;;;;;;;25.77;22.00;;;;;;;11.43;53.36;98724.12;4235059;33;33084;-89
2023/03/24 04:41:32;;;;;;;27.33;22.77;;;;;;;11.47;53.21;98729.31;4220978;33;33038;-92
2023/03/24 04:44:02;;;;;;;28.27;23.30;;;;;;;11.38;53.30;98737.97;4244393;33;33149;-93
2023/03/24 04:46:31;;;;;;;30.62;22.37;;;;;;;11.40;53.25;98736.22;4217269;33;33247;-91
2023/03/24 04:49:05;;;;;;;26.12;21.12;;;;;;;11.38;53.47;98737.97;4228881;33;33056;-90
2023/03/24 04:51:34;;;;;;;28.17;22.27;;;;;;;11.61;52.70;98738.00;4217514;33;32433;-92
2023/03/24 04:54:02;;;;;;;26.05;21.45;;;;;;;11.40;52.97;98738.81;4243017;33;33270;-91
2023/03/24 04:56:39;;;;;;;26.23;22.37;;;;;;;11.28;53.56;98738.78;4229302;33;33089;-87
2023/03/24 04:59:11;;;;;;;29.77;22.52;;;;;;;11.23;53.71;98736.19;4239088;33;34101;-92
2023/03/24 05:01:39;;;;;;;26.95;23.08;;;;;;;11.31;53.58;98744.88;4235748;33;34001;-93
2023/03/24 05:04:09;;;;;;;30.05;22.45;;;;;;;11.26;53.71;98745.72;4231573;33;33481;-92
2023/03/24 05:06:38;;;;;;;28.92;22.83;;;;;;;11.34;53.67;98749.22;4236088;33;33859;-89
2023/03/24 05:09:06;;;;;;;27.77;22.85;;;;;;;11.32;53.70;98750.91;4220523;33;32832;-87
2023/03/24 05:11:34;;;;;;;28.12;22.98;;;;;;;11.11;54.48;98757.78;4228712;33;33941;-89
2023/03/24 05:14:02;;;;;;;29.33;23.40;;;;;;;11.05;54.85;98754.28;4242741;33;33634;-87
2023/03/24 05:16:30;;;;;;;27.13;22.25;;;;;;;11.25;54.48;98765.63;4242448;33;34063;-87
2023/03/24 05:18:58;;;;;;;27.48;22.27;;;;;;;11.39;54.26;98766.50;4232919;33;34656;-89
2023/03/24 05:21:30;;;;;;;26.98;21.77;;;;;;;11.43;54.16;98762.19;4227143;33;33749;-89
2023/03/24 05:24:01;;;;;;;26.30;22.17;;;;;;;11.46;54.01;98762.22;4243103;33;33204;-89
2023/03/24 05:26:30;;;;;;;25.85;21.60;;;;;;;11.30;54.50;98757.84;4242840;33;34397;-90
2023/03/24 05:29:02;;;;;;;27.48;22.23;;;;;;;11.58;53.93;98759.63;4244490;33;33843;-88
2023/03/24 05:31:30;;;;;;;30.77;23.17;;;;;;;11.67;53.63;98753.63;4242578;33;34358;-90
2023/03/24 05:33:58;;;;;;;28.73;22.25;;;;;;;11.73;53.32;98753.59;4243670;33;34155;-91
2023/03/24 05:36:46;;;;;;;26.37;21.92;;;;;;;11.71;53.41;98759.69;4242011;33;34712;-90
2023/03/24 05:39:14;;;;;;;25.88;21.20;;;;;;;11.78;53.43;98761.41;4220309;33;33445;-90
2023/03/24 05:41:44;;;;;;;26.73;20.37;;;;;;;11.74;53.56;98762.25;4241497;33;34254;-92
2023/03/24 05:44:20;;;;;;;29.05;22.05;;;;;;;11.83;53.39;98759.69;4243827;33;32602;-92
2023/03/24 05:46:49;;;;;;;28.33;23.33;;;;;;;11.83;53.31;98759.69;4230209;33;34203;-91
2023/03/24 05:49:17;;;;;;;27.17;22.73;;;;;;;11.86;53.65;98770.12;4241279;33;34054;-91
2023/03/24 05:51:45;;;;;;;28.80;24.77;;;;;;;12.03;53.36;98768.38;4242713;33;34611;-90
2023/03/24 06:16:44;;;;;;;30.48;21.25;;;;;;;12.79;50.62;98764.84;4606641;28;20104;-89
2023/03/24 06:19:12;;;;;;;31.58;19.70;;;;;;;12.63;50.82;98776.16;4273867;33;33587;-89
2023/03/24 06:21:40;;;;;;;27.02;19.65;;;;;;;12.39;50.92;98775.31;4287028;33;34269;-88
2023/03/24 06:24:09;;;;;;;26.75;19.12;;;;;;;12.05;51.66;98771.88;4273955;33;35185;-88
2023/03/24 06:26:37;;;;;;;25.45;19.70;;;;;;;12.49;51.17;98773.56;4286677;33;33600;-89
2023/03/24 06:29:04;;;;;;;26.73;18.48;;;;;;;12.56;51.13;98769.22;4286810;33;33453;-88
2023/03/24 06:31:33;;;;;;;27.80;19.30;;;;;;;13.08;49.39;98771.69;4273606;33;33430;-88
2023/03/24 06:34:01;;;;;;;27.55;19.65;;;;;;;12.85;50.09;98776.97;4273758;33;34986;-89
2023/03/24 06:36:29;;;;;;;25.00;18.73;;;;;;;12.91;49.70;98779.56;4265424;33;34414;-89
2023/03/24 06:38:56;;;;;;;28.52;19.12;;;;;;;13.18;49.19;98768.16;4259748;33;33244;-88
2023/03/24 06:41:26;;;;;;;26.62;19.15;;;;;;;12.92;50.15;98776.09;4272069;33;33913;-88
2023/03/24 06:43:53;;;;;;;26.85;19.15;;;;;;;13.05;49.54;98753.50;4282898;33;34171;-89
2023/03/24 06:46:21;;;;;;;27.23;19.17;;;;;;;13.11;49.54;98754.34;4272177;33;33807;-88
2023/03/24 06:48:49;;;;;;;24.67;17.92;;;;;;;13.16;49.76;98762.12;4282349;33;33299;-89
2023/03/24 06:51:18;;;;;;;25.73;19.08;;;;;;;13.48;48.97;98754.19;4259441;33;33940;-89
2023/03/24 06:53:46;;;;;;;25.77;17.60;;;;;;;13.47;48.84;98755.06;4259322;33;34234;-89
2023/03/24 06:56:16;;;;;;;27.05;18.48;;;;;;;13.38;48.67;98749.91;4271909;33;33856;-88
2023/03/24 06:58:43;;;;;;;26.10;17.52;;;;;;;13.09;49.67;98750.87;4247667;33;32854;-88
2023/03/24 07:01:13;;;;;;;23.40;17.45;;;;;;;13.38;49.01;98740.34;4246637;33;33457;-87
2023/03/24 07:03:42;;;;;;;24.75;18.17;;;;;;;13.49;49.54;98740.31;4256832;33;33638;-88
2023/03/24 07:06:10;;;;;;;26.83;17.92;;;;;;;13.68;49.17;98738.44;4272049;33;33994;-88
2023/03/24 07:08:39;;;;;;;26.45;18.20;;;;;;;13.80;48.93;98734.91;4272061;33;33487;-89
2023/03/24 07:11:08;;;;;;;26.60;19.10;;;;;;;13.82;48.61;98736.59;4272822;33;34767;-88
2023/03/24 07:13:37;;;;;;;26.62;19.33;;;;;;;13.87;48.96;98741.78;4274269;33;33998;-88
2023/03/24 07:16:05;;;;;;;26.52;18.50;;;;;;;14.01;48.82;98739.91;4273594;33;33900;-88
2023/03/24 07:18:34;;;;;;;30.65;21.20;;;;;;;14.16;48.82;98740.69;4261197;33;33577;-88
2023/03/24 07:21:02;;;;;;;27.35;20.15;;;;;;;14.24;48.07;98746.69;4273796;33;34860;-88
2023/03/24 07:23:31;;;;;;;33.45;19.40;;;;;;;14.34;48.23;98737.91;4260980;33;34208;-89
2023/03/24 07:25:59;;;;;;;26.95;18.25;;;;;;;14.53;48.25;98742.09;4273880;33;33995;-88
2023/03/24 07:28:29;;;;;;;24.20;18.52;;;;;;;14.79;46.84;98734.00;4260462;33;33068;-89
2023/03/24 07:31:01;;;;;;;22.50;16.62;;;;;;;14.53;47.67;98734.28;4273436;33;34010;-88
2023/03/24 07:33:30;;;;;;;21.08;16.77;;;;;;;14.66;46.96;98727.22;4273875;33;35311;-88
2023/03/24 07:35:58;;;;;;;26.27;19.33;;;;;;;14.46;47.13;98729.09;4260663;33;34317;-88
2023/03/24 07:38:26;;;;;;;24.35;16.17;;;;;;;14.53;47.17;98723.84;4273841;33;34487;-88
2023/03/24 07:40:54;;;;;;;23.48;14.93;;;;;;;14.92;46.13;98726.03;4273875;33;33667;-88
2023/03/24 07:43:22;;;;;;;16.77;11.98;;;;;;;14.69;45.73;98728.91;4273271;33;35072;-89
2023/03/24 07:45:49;;;;;;;25.30;13.02;;;;;;;14.96;44.28;98730.31;4270268;33;84923;-88
2023/03/24 07:48:17;;;;;;;18.23;12.23;;;;;;;14.91;44.35;98730.38;4273632;33;33515;-89
2023/03/24 07:50:45;;;;;;;22.15;13.57;;;;;;;14.89;44.58;98732.16;4249008;33;32864;-89
2023/03/24 07:53:18;;;;;;;25.15;14.73;;;;;;;14.88;44.49;98743.47;4259736;33;33899;-88
2023/03/24 07:55:47;;;;;;;23.85;12.73;;;;;;;15.34;43.79;98735.06;4273866;33;34244;-88
2023/03/24 07:58:15;;;;;;;19.65;12.23;;;;;;;15.50;43.28;98728.78;4273127;33;33587;-89
2023/03/24 08:00:46;;;;;;;19.80;13.32;;;;;;;16.07;41.91;98729.69;4273843;33;32503;-88
2023/03/24 08:03:16;;;;;;;30.00;14.02;;;;;;;15.90;41.96;98730.81;4273815;33;32893;-88
2023/03/24 08:05:44;;;;;;;16.27;12.25;;;;;;;16.31;41.81;98737.13;4260640;33;33617;-89
2023/03/24 08:08:13;;;;;;;15.40;10.10;;;;;;;16.37;41.88;98731.78;4273890;33;33536;-89
2023/03/24 08:10:41;;;;;;;19.92;11.00;;;;;;;16.43;40.89;98729.03;4273303;33;34000;-88
2023/03/24 08:13:08;;;;;;;14.85;10.35;;;;;;;16.38;41.22;98730.88;4273031;33;34867;-88
2023/03/24 08:15:36;;;;;;;20.55;10.98;;;;;;;16.32;40.77;98717.91;4259603;33;34548;-89
2023/03/24 08:18:05;;;;;;;20.40;11.90;;;;;;;16.34;40.79;98721.37;4272469;33;33653;-89
2023/03/24 08:20:32;;;;;;;22.52;12.73;;;;;;;16.63;40.80;98719.97;4273167;33;33799;-88
2023/03/24 08:23:03;;;;;;;23.00;12.52;;;;;;;16.44;41.10;98712.47;4259065;33;34273;-88
2023/03/24 08:25:31;;;;;;;18.52;11.38;;;;;;;16.58;40.39;98713.97;4260404;33;34591;-83
2023/03/24 08:27:59;;;;;;;14.82;10.43;;;;;;;16.04;42.25;98712.28;4272942;33;34532;-81
2023/03/24 08:30:27;;;;;;;17.33;12.15;;;;;;;15.81;42.03;98699.59;4274012;33;33931;-88
2023/03/24 08:32:57;;;;;;;19.67;12.45;;;;;;;16.33;41.70;98696.09;4260290;33;35132;-89
2023/03/24 08:35:28;;;;;;;20.25;13.13;;;;;;;16.30;41.45;98688.31;4248573;33;33667;-88
2023/03/24 08:37:58;;;;;;;24.27;12.18;;;;;;;16.38;41.64;98690.78;4273566;33;33489;-89
2023/03/24 08:40:27;;;;;;;19.05;12.00;;;;;;;16.50;41.01;98685.31;4273091;33;34347;-89
2023/03/24 08:43:00;;;;;;;20.05;12.13;;;;;;;16.60;41.25;98675.56;4260298;33;34018;-89
2023/03/24 08:45:29;;;;;;;18.92;10.80;;;;;;;16.95;40.82;98680.09;4272091;33;33910;-89
2023/03/24 08:48:00;;;;;;;18.23;12.73;;;;;;;16.70;40.86;98677.06;4260215;33;33495;-89
2023/03/24 08:50:31;;;;;;;19.17;12.05;;;;;;;16.36;41.38;98682.94;4259909;33;34827;-89
2023/03/24 08:52:59;;;;;;;22.35;12.05;;;;;;;16.75;41.50;98675.28;4259871;33;33739;-89
2023/03/24 08:55:27;;;;;;;18.33;11.93;;;;;;;16.39;41.66;98679.41;4260392;33;33287;-89
2023/03/24 08:57:55;;;;;;;19.73;11.02;;;;;;;16.73;41.52;98671.78;4260208;33;33318;-89
2023/03/24 09:00:23;;;;;;;16.40;11.30;;;;;;;16.65;41.08;98676.31;4273120;33;33866;-90
2023/03/24 09:02:52;;;;;;;20.02;11.55;;;;;;;17.05;40.80;98671.16;4259898;33;33720;-89
2023/03/24 09:05:22;;;;;;;18.17;11.25;;;;;;;17.47;40.66;98671.97;4272283;33;33812;-89
2023/03/24 09:08:11;;;;;;;19.02;10.43;;;;;;;16.98;40.48;98674.81;4273208;33;34017;-89
2023/03/24 09:10:40;;;;;;;20.35;10.45;;;;;;;17.15;40.49;98675.28;4272809;33;34747;-89
2023/03/24 09:13:08;;;;;;;19.80;10.00;;;;;;;16.97;41.01;98675.69;4272250;33;34165;-88
2023/03/24 09:15:36;;;;;;;17.52;9.13;;;;;;;17.25;40.09;98661.09;4272903;33;34088;-90
2023/03/24 09:18:04;;;;;;;16.87;10.32;;;;;;;17.56;39.39;98663.03;4257136;33;33040;-89
2023/03/24 09:20:31;;;;;;;14.43;9.35;;;;;;;17.69;39.66;98661.84;4257720;33;33974;-89
2023/03/24 09:22:59;;;;;;;13.07;9.15;;;;;;;17.96;39.90;98673.44;4258673;33;34148;-89
2023/03/24 09:25:26;;;;;;;15.63;10.93;;;;;;;18.25;39.19;98663.97;4258680;33;34211;-88
2023/03/24 09:27:55;;;;;;;14.50;10.57;;;;;;;17.92;39.61;98663.94;4245664;33;32406;-89
2023/03/24 09:30:23;;;;;;;15.38;10.00;;;;;;;17.90;39.77;98657.84;4258341;33;34737;-89
2023/03/24 09:32:51;;;;;;;17.52;9.18;;;;;;;18.05;39.28;98655.75;4258147;33;35046;-89
2023/03/24 09:35:18;;;;;;;15.20;9.98;;;;;;;18.02;38.86;98643.56;4256819;33;35200;-90
2023/03/24 09:37:46;;;;;;;15.52;9.63;;;;;;;18.42;38.74;98643.38;4258803;33;33618;-89
2023/03/24 09:40:25;;;;;;;14.52;10.18;;;;;;;18.23;39.42;98644.78;4256913;33;35143;-88
2023/03/24 09:42:58;;;;;;;16.30;10.77;;;;;;;18.25;39.37;98640.34;4257230;33;35481;-89
2023/03/24 09:45:29;;;;;;;17.40;9.98;;;;;;;17.86;40.04;98644.87;4258503;33;33284;-89
2023/03/24 09:48:03;;;;;;;17.40;10.43;;;;;;;18.24;39.71;98638.63;4257648;33;33570;-89
2023/03/24 09:50:41;;;;;;;18.27;10.27;;;;;;;18.30;39.56;98633.22;4257046;33;34000;-89
2023/03/24 09:53:53;;;;;;;25.40;10.00;;;;;;;18.78;38.59;98626.66;4233689;33;33570;-89
2023/03/24 09:56:22;;;;;;;19.52;10.02;;;;;;;18.88;38.11;98628.13;4258668;33;33595;-89
2023/03/24 09:59:01;;;;;;;15.35;10.63;;;;;;;19.03;37.82;98624.19;4258457;33;33564;-89
2023/03/24 10:01:29;;;;;;;13.82;9.77;;;;;;;19.18;38.29;98635.09;4256870;33;34258;-89
2023/03/24 10:03:58;;;;;;;14.82;9.25;;;;;;;19.36;37.42;98620.53;4253213;33;34102;-89
2023/03/24 10:06:29;;;;;;;19.80;9.88;;;;;;;19.57;36.81;98613.69;4256758;33;34008;-89
2023/03/24 10:09:04;;;;;;;13.48;9.30;;;;;;;19.55;37.42;98612.06;4245312;33;34419;-90
2023/03/24 10:11:47;;;;;;;18.37;10.07;;;;;;;20.08;35.81;98604.16;4258474;33;34131;-89
2023/03/24 10:14:46;;;;;;;15.30;8.63;;;;;;;19.72;36.55;98609.75;4256809;33;34193;-90
2023/03/24 10:17:23;;;;;;;12.40;6.55;;;;;;;19.77;36.51;98585.91;4255016;33;33970;-90
2023/03/24 10:19:57;;;;;;;14.40;6.43;;;;;;;20.20;35.49;98589.72;4258285;33;34478;-89
2023/03/24 10:22:41;;;;;;;;;;;;;;;20.25;35.18;98583.34;4258413;33;34807;-89
2023/03/24 10:25:53;;;;;;;10.93;4.93;;;;;;;20.37;34.66;98584.69;4256958;33;34391;-89
2023/03/24 10:29:04;;;;;;;13.85;5.20;;;;;;;20.63;34.03;98579.34;4241423;33;33838;-90
2023/03/24 10:31:34;;;;;;;15.80;6.32;;;;;;;20.44;33.99;98577.44;4241640;33;33060;-90
2023/03/24 10:34:02;;;;;;;11.15;5.53;;;;;;;20.88;33.54;98555.56;4254917;33;33791;-90
2023/03/24 10:36:30;;;;;;;11.05;4.93;;;;;;;20.72;33.79;98575.53;4256691;33;34992;-90
2023/03/24 10:38:58;;;;;;;11.73;4.68;;;;;;;21.24;33.50;98564.72;4245046;33;33970;-89
2023/03/24 10:41:41;;;;;;;14.45;5.22;;;;;;;20.97;33.54;98570.16;4257691;33;33074;-88
2023/03/24 10:44:11;;;;;;;10.63;5.37;;;;;;;21.08;32.94;98553.94;4256729;33;34891;-90
2023/03/24 10:46:45;;;;;;;9.32;4.90;;;;;;;21.21;33.31;98559.56;4259110;33;34636;-89
2023/03/24 10:49:18;;;;;;;10.82;5.00;;;;;;;21.58;32.80;98553.69;4259497;33;34562;-89
2023/03/24 10:51:52;;;;;;;11.25;5.12;;;;;;;21.47;32.83;98561.19;4258244;33;33476;-89
2023/03/24 10:54:22;;;;;;;10.70;5.00;;;;;;;21.45;32.55;98557.75;4259721;33;33911;-90
2023/03/24 10:57:01;;;;;;;9.77;4.60;;;;;;;21.83;32.69;98557.00;4259172;33;34169;-89
2023/03/24 10:59:34;;;;;;;11.52;5.20;;;;;;;21.72;32.26;98558.38;4259481;33;33973;-90
2023/03/24 11:02:08;;;;;;;11.98;5.22;;;;;;;22.09;32.28;98549.75;4255360;33;33662;-89
2023/03/24 11:04:39;;;;;;;11.60;4.90;;;;;;;21.93;31.89;98549.53;4254428;33;34345;-90
2023/03/24 11:07:19;;;;;;;14.10;4.80;;;;;;;22.13;31.21;98540.78;4258146;33;34551;-89
2023/03/24 11:10:00;;;;;;;11.57;4.87;;;;;;;22.11;31.47;98534.69;4258049;33;35091;-90
2023/03/24 11:12:33;;;;;;;10.50;4.75;;;;;;;22.46;30.55;98534.91;4246705;33;33693;-90
2023/03/24 11:15:29;;;;;;;11.82;5.00;;;;;;;22.66;30.67;98524.31;4258004;33;33739;-90
2023/03/24 11:18:02;;;;;;;9.60;4.13;;;;;;;22.76;30.10;98525.56;4255770;33;34225;-89
2023/03/24 11:20:31;;;;;;;22.87;5.85;;;;;;;22.80;30.30;98518.34;4257569;33;34825;-90
2023/03/24 11:23:04;;;;;;;11.85;4.15;;;;;;;22.78;29.53;98513.16;4257957;33;33240;-90
2023/03/24 11:25:35;;;;;;;10.70;3.83;;;;;;;23.17;29.19;98514.84;4259462;33;33782;-90
2023/03/24 11:28:09;;;;;;;10.85;3.92;;;;;;;22.94;29.43;98501.88;4259665;33;35019;-90
2023/03/24 11:30:46;;;;;;;8.30;3.35;;;;;;;22.90;29.34;98497.66;4258287;33;34084;-89
2023/03/24 11:33:19;;;;;;;7.82;3.30;;;;;;;22.92;29.20;98493.16;4258263;33;33946;-90
2023/03/24 11:36:11;;;;;;;10.18;3.20;;;;;;;23.19;28.36;98497.13;4259229;33;34048;-90
2023/03/24 11:38:39;;;;;;;6.72;2.58;;;;;;;23.41;28.64;98485.44;4257922;33;34330;-90
2023/03/24 11:41:18;;;;;;;7.53;3.40;;;;;;;23.38;28.38;98470.63;4258081;33;34583;-89
2023/03/24 11:43:45;;;;;;;6.97;2.85;;;;;;;23.06;28.64;98474.84;4258097;33;33209;-90
2023/03/24 11:46:19;;;;;;;6.82;2.22;;;;;;;23.06;28.74;98474.84;4257872;33;34876;-90
2023/03/24 11:48:51;;;;;;;7.53;2.50;;;;;;;23.21;29.42;98484.66;4257634;33;34953;-90
2023/03/24 11:51:34;;;;;;;7.50;2.37;;;;;;;23.15;28.60;98473.56;4257901;33;34468;-89
2023/03/24 11:54:04;;;;;;;7.07;2.12;;;;;;;23.35;28.05;98454.03;4245950;33;32724;-90
2023/03/24 11:56:35;;;;;;;4.57;1.77;;;;;;;22.94;27.10;98470.16;4257929;33;34022;-90
2023/03/24 11:59:17;;;;;;;8.23;2.10;;;;;;;23.10;27.89;98471.13;4259269;33;33953;-85
2023/03/24 12:01:58;;;;;;;6.37;2.75;;;;;;;22.79;27.49;98467.28;4257051;33;33830;-82
2023/03/24 12:05:15;;;;;;;6.62;2.08;;;;;;;22.88;27.73;98455.44;4280812;33;33109;-90
2023/03/24 12:08:00;;;;;;;6.25;1.90;;;;;;;22.97;27.62;98449.72;4257225;33;34810;-88
2023/03/24 12:10:37;;;;;;;8.27;2.15;;;;;;;22.83;27.67;98447.72;4251859;33;34280;-90